createdAt,value
2023-04-11T00:00:21.259Z,6.60
2023-04-11T00:02:48.500Z,6.60
2023-04-11T00:05:15.620Z,6.50
2023-04-11T00:07:42.535Z,6.50
2023-04-11T00:10:09.938Z,6.50
2023-04-11T00:12:36.936Z,6.40
2023-04-11T00:15:05.131Z,6.40
2023-04-11T00:17:32.106Z,6.40
2023-04-11T00:20:01.864Z,6.40
2023-04-11T00:22:30.736Z,6.40
2023-04-11T00:24:57.662Z,6.40
2023-04-11T00:27:24.655Z,6.40
2023-04-11T00:29:52.944Z,6.30
2023-04-11T00:32:19.922Z,6.40
2023-04-11T00:34:46.826Z,6.40
2023-04-11T00:37:14.304Z,6.40
2023-04-11T00:39:41.254Z,6.50
2023-04-11T00:42:08.836Z,6.50
2023-04-11T00:44:36.520Z,6.60
2023-04-11T00:47:07.126Z,6.60
2023-04-11T00:49:34.655Z,6.60
2023-04-11T00:52:03.339Z,6.60
2023-04-11T00:54:31.626Z,6.60
2023-04-11T00:57:03.157Z,6.60
2023-04-11T00:59:31.727Z,6.70
2023-04-11T01:01:59.979Z,6.70
2023-04-11T01:04:27.192Z,6.70
2023-04-11T01:07:04.141Z,6.80
2023-04-11T01:09:34.028Z,6.80
2023-04-11T01:12:03.065Z,6.90
2023-04-11T01:14:30.341Z,6.90
2023-04-11T01:16:57.850Z,7.00
2023-04-11T01:19:26.770Z,7.00
2023-04-11T01:21:56.131Z,7.00
2023-04-11T01:24:23.185Z,7.10
2023-04-11T01:26:50.234Z,7.10
2023-04-11T01:29:17.250Z,7.10
2023-04-11T01:31:45.472Z,7.20
2023-04-11T01:34:14.711Z,7.30
2023-04-11T01:36:42.918Z,7.30
2023-04-11T01:39:10.539Z,7.40
2023-04-11T01:41:38.721Z,7.50
2023-04-11T01:44:05.907Z,7.60
2023-04-11T01:46:36.139Z,7.60
2023-04-11T01:49:03.986Z,7.70
2023-04-11T01:51:31.073Z,7.70
2023-04-11T01:53:58.114Z,7.70
2023-04-11T01:56:25.057Z,7.70
2023-04-11T01:58:52.015Z,7.70
2023-04-11T02:01:22.640Z,7.70
2023-04-11T02:03:49.852Z,7.70
2023-04-11T02:06:17.255Z,7.70
2023-04-11T02:08:44.979Z,7.70
2023-04-11T02:11:12.014Z,7.70
2023-04-11T02:13:38.972Z,7.70
2023-04-11T02:16:18.154Z,7.70
2023-04-11T02:18:45.960Z,7.60
2023-04-11T02:21:13.080Z,7.60
2023-04-11T02:23:40.035Z,7.70
2023-04-11T02:26:07.020Z,7.70
2023-04-11T02:28:34.625Z,7.60
2023-04-11T02:31:02.800Z,7.60
2023-04-11T02:33:29.938Z,7.60
2023-04-11T02:35:57.006Z,7.60
2023-04-11T02:38:24.127Z,7.60
2023-04-11T02:40:51.097Z,7.70
2023-04-11T02:43:18.036Z,7.60
2023-04-11T02:45:45.016Z,7.70
2023-04-11T02:48:11.927Z,7.70
2023-04-11T02:50:41.151Z,7.70
2023-04-11T02:53:08.265Z,7.70
2023-04-11T02:55:35.317Z,7.70
2023-04-11T02:58:02.426Z,7.70
2023-04-11T03:00:29.405Z,7.70
2023-04-11T03:02:57.245Z,7.70
2023-04-11T03:05:24.304Z,7.70
2023-04-11T03:07:51.407Z,7.80
2023-04-11T03:10:18.450Z,7.80
2023-04-11T03:12:45.467Z,7.80
2023-04-11T03:15:15.437Z,7.80
2023-04-11T03:17:42.630Z,7.80
2023-04-11T03:20:11.856Z,7.70
2023-04-11T03:22:39.253Z,7.70
2023-04-11T03:25:07.482Z,7.80
2023-04-11T03:27:34.499Z,7.80
2023-04-11T03:30:01.511Z,7.90
2023-04-11T03:32:28.634Z,7.80
2023-04-11T03:34:55.709Z,7.80
2023-04-11T03:37:22.728Z,7.90
2023-04-11T03:39:49.681Z,7.90
2023-04-11T03:42:16.729Z,7.90
2023-04-11T03:44:43.748Z,7.90
2023-04-11T03:47:10.823Z,7.90
2023-04-11T03:49:37.969Z,8.00
2023-04-11T03:52:05.852Z,7.90
2023-04-11T03:54:32.931Z,7.90
2023-04-11T03:56:59.897Z,7.90
2023-04-11T03:59:26.885Z,7.90
2023-04-11T04:01:54.152Z,7.80
2023-04-11T04:04:21.295Z,7.80
2023-04-11T04:06:48.394Z,7.80
2023-04-11T04:09:15.432Z,7.90
2023-04-11T04:11:42.424Z,7.90
2023-04-11T04:14:09.825Z,8.00
2023-04-11T04:16:39.267Z,8.10
2023-04-11T04:19:06.304Z,8.10
2023-04-11T04:21:34.305Z,8.10
2023-04-11T04:24:03.805Z,8.10
2023-04-11T04:26:31.755Z,8.20
2023-04-11T04:29:11.011Z,8.20
2023-04-11T04:31:38.930Z,8.30
2023-04-11T04:34:10.300Z,8.30
2023-04-11T04:36:48.105Z,8.20
2023-04-11T04:39:18.775Z,8.20
2023-04-11T04:41:45.789Z,8.30
2023-04-11T04:44:12.842Z,8.30
2023-04-11T04:46:39.976Z,8.40
2023-04-11T04:49:08.364Z,8.50
2023-04-11T04:51:40.350Z,8.60
2023-04-11T04:54:07.284Z,8.70
2023-04-11T04:56:34.357Z,8.70
2023-04-11T04:59:01.460Z,8.80
2023-04-11T05:01:28.429Z,9.00
2023-04-11T05:04:02.077Z,9.20
2023-04-11T05:06:32.160Z,9.30
2023-04-11T05:09:01.387Z,9.40
2023-04-11T05:11:29.271Z,9.50
2023-04-11T05:13:56.404Z,9.60
2023-04-11T05:16:23.582Z,9.60
2023-04-11T05:18:50.560Z,9.70
2023-04-11T05:21:17.545Z,9.80
2023-04-11T05:23:44.562Z,9.80
2023-04-11T05:26:12.437Z,9.80
2023-04-11T05:28:39.444Z,9.90
2023-04-11T05:31:07.096Z,9.90
2023-04-11T05:33:34.522Z,10.00
2023-04-11T05:36:01.622Z,10.00
2023-04-11T05:38:28.610Z,10.10
2023-04-11T05:40:55.593Z,10.10
2023-04-11T05:43:22.860Z,10.10
2023-04-11T05:45:50.151Z,10.20
2023-04-11T05:48:19.821Z,10.30
2023-04-11T05:50:46.981Z,10.40
2023-04-11T05:53:13.989Z,10.40
2023-04-11T05:55:40.977Z,10.50
2023-04-11T05:58:08.582Z,10.60
2023-04-11T06:00:35.560Z,10.70
2023-04-11T06:03:02.670Z,10.80
2023-04-11T06:05:31.732Z,10.90
2023-04-11T06:08:02.030Z,11.00
2023-04-11T06:10:30.078Z,11.20
2023-04-11T06:12:58.034Z,11.30
2023-04-11T06:15:26.865Z,11.40
2023-04-11T06:17:54.593Z,11.50
2023-04-11T06:20:23.071Z,11.70
2023-04-11T06:22:52.939Z,11.80
2023-04-11T06:25:21.210Z,12.00
2023-04-11T06:27:48.786Z,12.00
2023-04-11T06:30:16.012Z,12.20
2023-04-11T06:32:43.056Z,12.30
2023-04-11T06:35:10.645Z,12.40
2023-04-11T06:37:37.985Z,12.50
2023-04-11T06:40:08.206Z,12.70
2023-04-11T06:42:35.147Z,12.80
2023-04-11T06:45:02.125Z,13.00
2023-04-11T06:47:29.232Z,13.10
2023-04-11T06:49:56.467Z,13.30
2023-04-11T06:52:23.410Z,13.40
2023-04-11T06:54:50.446Z,13.60
2023-04-11T06:57:18.126Z,13.60
2023-04-11T06:59:45.164Z,13.60
2023-04-11T07:02:12.390Z,13.80
2023-04-11T07:04:39.505Z,14.00
2023-04-11T07:07:06.843Z,14.20
2023-04-11T07:09:33.960Z,14.50
2023-04-11T07:12:01.802Z,14.80
2023-04-11T07:14:28.829Z,15.00
2023-04-11T07:19:28.229Z,15.40
2023-04-11T07:21:55.262Z,15.60
2023-04-11T07:24:26.199Z,15.60
2023-04-11T07:26:53.870Z,15.60
2023-04-11T07:29:21.764Z,15.90
2023-04-11T07:31:49.727Z,16.50
2023-04-11T07:34:16.891Z,17.10
2023-04-11T07:36:43.830Z,17.60
2023-04-11T07:39:12.378Z,17.40
2023-04-11T07:41:39.689Z,17.20
2023-04-11T07:44:10.072Z,17.00
2023-04-11T07:46:36.994Z,17.00
2023-04-11T07:49:03.995Z,17.10
2023-04-11T07:51:31.399Z,17.20
2023-04-11T07:53:58.645Z,17.30
2023-04-11T07:56:26.073Z,17.50
2023-04-11T07:58:53.094Z,17.50
2023-04-11T08:01:25.091Z,17.40
2023-04-11T08:03:54.170Z,17.10
2023-04-11T08:06:21.611Z,17.00
2023-04-11T08:08:49.480Z,17.00
2023-04-11T08:11:16.777Z,17.00
2023-04-11T08:13:46.978Z,17.10
2023-04-11T08:16:15.909Z,17.30
2023-04-11T08:18:43.048Z,17.60
2023-04-11T08:21:13.568Z,18.00
2023-04-11T08:23:42.461Z,18.30
2023-04-11T08:26:10.797Z,18.50
2023-04-11T08:28:37.800Z,18.50
2023-04-11T08:31:05.768Z,18.40
2023-04-11T08:33:33.520Z,18.20
2023-04-11T08:36:00.542Z,17.90
2023-04-11T08:38:27.526Z,17.80
2023-04-11T08:40:55.363Z,17.90
2023-04-11T08:43:23.251Z,18.20
2023-04-11T08:45:50.305Z,18.50
2023-04-11T08:48:17.490Z,18.70
2023-04-11T08:50:44.940Z,18.90
2023-04-11T08:53:12.355Z,19.00
2023-04-11T08:55:47.096Z,19.00
2023-04-11T08:58:14.673Z,19.00
2023-04-11T09:00:41.663Z,19.10
2023-04-11T09:03:10.493Z,19.00
2023-04-11T09:05:44.710Z,18.70
2023-04-11T09:08:13.618Z,18.70
2023-04-11T09:10:42.987Z,18.80
2023-04-11T09:13:22.886Z,18.90
2023-04-11T09:16:10.943Z,18.90
2023-04-11T09:18:46.694Z,19.00
2023-04-11T09:21:15.853Z,19.00
2023-04-11T09:23:43.756Z,19.10
2023-04-11T09:26:12.331Z,19.30
2023-04-11T09:28:42.971Z,19.30
2023-04-11T09:31:13.233Z,19.50
2023-04-11T09:33:53.472Z,19.60
2023-04-11T09:36:22.902Z,19.60
2023-04-11T09:38:50.094Z,19.50
2023-04-11T09:41:31.445Z,19.60
2023-04-11T09:43:59.086Z,19.60
2023-04-11T09:46:26.362Z,19.70
2023-04-11T09:48:57.351Z,19.70
2023-04-11T09:53:55.744Z,19.60
2023-04-11T09:56:26.643Z,19.50
2023-04-11T09:58:54.807Z,19.50
2023-04-11T10:01:24.480Z,19.40
2023-04-11T10:03:51.548Z,19.40
2023-04-11T10:06:34.394Z,19.50
2023-04-11T10:09:13.004Z,19.60
2023-04-11T10:11:44.185Z,19.70
2023-04-11T10:14:39.056Z,19.80
2023-04-11T10:17:32.496Z,19.90
2023-04-11T10:19:59.533Z,19.90
2023-04-11T10:22:41.867Z,19.90
2023-04-11T10:25:22.229Z,19.80
2023-04-11T10:27:54.003Z,19.80
2023-04-11T10:30:41.145Z,19.90
2023-04-11T10:33:17.721Z,20.10
2023-04-11T10:36:10.536Z,20.20
2023-04-11T10:38:43.909Z,20.30
2023-04-11T10:41:22.979Z,20.40
2023-04-11T10:43:50.292Z,20.50
2023-04-11T10:46:22.241Z,20.20
2023-04-11T10:49:02.174Z,19.80
2023-04-11T10:51:33.483Z,19.60
2023-04-11T10:54:01.257Z,19.60
2023-04-11T10:56:46.925Z,19.60
2023-04-11T10:59:32.166Z,19.80
2023-04-11T11:02:01.623Z,19.70
2023-04-11T11:04:35.531Z,19.60
2023-04-11T11:07:04.385Z,19.60
2023-04-11T11:09:32.347Z,19.70
2023-04-11T11:12:09.745Z,19.80
2023-04-11T11:14:37.523Z,20.10
2023-04-11T11:17:05.020Z,20.20
2023-04-11T11:19:32.503Z,20.40
2023-04-11T11:22:04.356Z,20.50
2023-04-11T11:24:31.601Z,20.50
2023-04-11T11:26:59.020Z,20.50
2023-04-11T11:29:40.703Z,20.50
2023-04-11T11:32:07.761Z,20.40
2023-04-11T11:34:35.545Z,20.40
2023-04-11T11:37:06.850Z,20.50
2023-04-11T11:39:35.595Z,20.40
2023-04-11T11:42:03.530Z,20.30
2023-04-11T11:44:31.272Z,20.30
2023-04-11T11:47:18.132Z,20.40
2023-04-11T11:49:55.632Z,20.30
2023-04-11T11:52:36.715Z,20.00
2023-04-11T11:55:08.200Z,19.80
2023-04-11T11:57:37.590Z,19.80
2023-04-11T12:00:10.357Z,19.80
2023-04-11T12:02:39.498Z,20.00
2023-04-11T12:05:07.889Z,20.20
2023-04-11T12:07:37.948Z,20.20
2023-04-11T12:10:11.887Z,20.40
2023-04-11T12:12:42.084Z,20.50
2023-04-11T12:15:16.768Z,20.40
2023-04-11T12:17:48.070Z,20.40
2023-04-11T12:20:15.897Z,20.30
2023-04-11T12:22:42.916Z,20.40
2023-04-11T12:25:12.105Z,20.40
2023-04-11T12:27:41.086Z,20.60
2023-04-11T12:30:09.418Z,20.70
2023-04-11T12:32:37.088Z,20.70
2023-04-11T12:35:06.062Z,20.60
2023-04-11T12:37:34.229Z,20.70
2023-04-11T12:40:01.647Z,20.80
2023-04-11T12:42:28.676Z,21.00
2023-04-11T12:44:55.679Z,21.00
2023-04-11T13:48:43.849Z,19.70
2023-04-11T13:51:13.716Z,19.60
2023-04-11T13:53:40.866Z,19.50
2023-04-11T13:56:12.410Z,19.60
2023-04-11T13:58:39.461Z,19.50
2023-04-11T14:01:06.942Z,19.40
2023-04-11T14:03:34.270Z,19.20
2023-04-11T14:06:01.783Z,19.10
2023-04-11T14:08:29.279Z,19.10
2023-04-11T14:10:56.649Z,19.10
2023-04-11T14:13:23.758Z,19.20
2023-04-11T14:16:04.748Z,19.20
2023-04-11T14:18:34.763Z,19.30
2023-04-11T14:21:02.040Z,19.30
2023-04-11T14:23:29.667Z,19.20
2023-04-11T14:25:56.882Z,19.20
2023-04-11T14:28:26.420Z,19.10
2023-04-11T14:30:56.559Z,19.00
2023-04-11T14:33:23.776Z,19.00
2023-04-11T14:35:51.150Z,19.00
2023-04-11T14:38:18.196Z,19.10
2023-04-11T14:40:45.260Z,19.10
2023-04-11T14:43:12.245Z,19.10
2023-04-11T14:45:39.459Z,18.90
2023-04-11T14:48:06.803Z,18.70
2023-04-11T14:50:34.053Z,18.40
2023-04-11T14:53:01.261Z,18.30
2023-04-11T14:55:28.243Z,18.20
2023-04-11T14:57:56.686Z,18.20
2023-04-11T15:00:25.180Z,18.20
2023-04-11T15:02:54.820Z,18.00
2023-04-11T15:05:23.403Z,18.00
2023-04-11T15:07:51.994Z,18.00
2023-04-11T15:10:22.527Z,18.10
2023-04-11T15:12:50.079Z,18.10
2023-04-11T15:15:17.186Z,18.10
2023-04-11T15:17:46.484Z,18.00
2023-04-11T15:20:17.420Z,17.80
2023-04-11T15:22:45.276Z,17.60
2023-04-11T15:25:14.661Z,17.50
2023-04-11T15:27:42.450Z,17.50
2023-04-11T15:30:10.457Z,17.60
2023-04-11T15:32:43.882Z,17.60
2023-04-11T15:35:11.589Z,17.50
2023-04-11T15:37:38.492Z,17.50
2023-04-11T15:40:12.292Z,17.50
2023-04-11T15:42:39.420Z,17.60
2023-04-11T15:45:07.218Z,17.60
2023-04-11T15:47:34.142Z,17.60
2023-04-11T15:50:04.126Z,17.60
2023-04-11T15:52:31.071Z,17.60
2023-04-11T15:54:58.081Z,17.50
2023-04-11T15:57:26.541Z,17.50
2023-04-11T15:59:53.467Z,17.50
2023-04-11T16:02:20.497Z,17.50
2023-04-11T16:04:51.269Z,17.40
2023-04-11T16:07:20.216Z,17.40
2023-04-11T16:09:47.189Z,17.30
2023-04-11T16:12:14.324Z,17.20
2023-04-11T16:14:41.287Z,17.10
2023-04-11T16:17:11.040Z,17.10
2023-04-11T16:19:37.991Z,17.00
2023-04-11T16:22:05.001Z,16.90
2023-04-11T16:24:32.022Z,16.80
2023-04-11T16:26:58.905Z,16.70
2023-04-11T16:29:25.899Z,16.50
2023-04-11T16:31:52.960Z,16.40
2023-04-11T16:34:20.021Z,16.30
2023-04-11T16:36:47.120Z,16.10
2023-04-11T16:39:14.107Z,15.90
2023-04-11T16:41:41.195Z,15.80
2023-04-11T16:44:18.216Z,15.60
2023-04-11T16:46:45.365Z,15.50
2023-04-11T16:49:12.323Z,15.40
2023-04-11T16:51:39.265Z,15.30
2023-04-11T16:54:09.947Z,15.20
2023-04-11T16:56:37.447Z,15.10
2023-04-11T16:59:05.158Z,15.00
2023-04-11T17:01:32.547Z,14.90
2023-04-11T17:04:01.408Z,14.80
2023-04-11T17:06:28.758Z,14.70
2023-04-11T17:08:57.659Z,14.60
2023-04-11T17:11:25.283Z,14.70
2023-04-11T17:13:58.517Z,14.60
2023-04-11T17:16:26.572Z,14.60
2023-04-11T17:18:53.613Z,14.50
2023-04-11T17:21:20.715Z,14.50
2023-04-11T17:23:47.874Z,14.40
2023-04-11T17:26:16.173Z,14.40
2023-04-11T17:28:44.905Z,14.40
2023-04-11T17:31:16.357Z,14.40
2023-04-11T17:33:43.494Z,14.30
2023-04-11T17:36:12.553Z,14.30
2023-04-11T17:38:40.671Z,14.30
2023-04-11T17:41:14.438Z,14.30
2023-04-11T17:43:43.410Z,14.30
2023-04-11T17:46:10.518Z,14.20
2023-04-11T17:48:37.855Z,14.30
2023-04-11T17:51:05.810Z,14.30
2023-04-11T17:53:33.499Z,14.30
2023-04-11T17:56:04.765Z,14.20
2023-04-11T17:58:32.114Z,14.10
2023-04-11T18:00:59.674Z,14.10
2023-04-11T18:03:26.850Z,14.00
2023-04-11T18:05:54.753Z,14.00
2023-04-11T18:08:32.828Z,13.90
2023-04-11T18:11:09.809Z,13.80
2023-04-11T18:13:36.786Z,13.80
2023-04-11T18:16:04.346Z,13.80
2023-04-11T18:18:31.367Z,13.80
2023-04-11T18:21:06.671Z,13.80
2023-04-11T18:23:34.782Z,13.80
2023-04-11T18:26:01.735Z,13.80
2023-04-11T18:28:29.109Z,13.90
2023-04-11T18:30:56.458Z,13.80
2023-04-11T18:33:23.483Z,13.80
2023-04-11T18:35:50.515Z,13.70
2023-04-11T18:38:17.790Z,13.60
2023-04-11T18:40:44.802Z,13.50
2023-04-11T18:43:11.989Z,13.30
2023-04-11T18:45:39.446Z,13.20
2023-04-11T18:48:07.345Z,13.20
2023-04-11T18:50:38.953Z,13.10
2023-04-11T18:53:10.138Z,13.00
2023-04-11T18:55:40.686Z,12.80
2023-04-11T18:58:09.626Z,12.70
2023-04-11T19:00:39.115Z,12.70
2023-04-11T19:03:14.837Z,12.70
2023-04-11T19:05:43.834Z,12.70
2023-04-11T19:08:11.234Z,12.60
2023-04-11T19:10:38.397Z,12.50
2023-04-11T19:13:06.488Z,12.40
2023-04-11T19:15:33.681Z,12.30
2023-04-11T19:18:02.000Z,12.10
2023-04-11T19:20:29.729Z,12.00
2023-04-11T19:22:57.113Z,11.80
2023-04-11T19:25:24.497Z,11.70
2023-04-11T19:27:51.684Z,11.70
2023-04-11T19:30:18.628Z,11.60
2023-04-11T19:32:47.686Z,11.60
2023-04-11T19:35:15.209Z,11.60
2023-04-11T19:37:42.840Z,11.50
2023-04-11T19:40:19.259Z,11.40
2023-04-11T19:42:46.307Z,11.40
2023-04-11T19:45:13.406Z,11.40
2023-04-11T19:47:41.881Z,11.40
2023-04-11T19:50:14.348Z,11.40
2023-04-11T19:52:42.895Z,11.40
2023-04-11T19:55:11.570Z,11.40
2023-04-11T19:57:39.081Z,11.50
2023-04-11T20:00:17.616Z,11.50
2023-04-11T20:02:46.411Z,11.50
2023-04-11T20:07:58.820Z,11.40
2023-04-11T20:10:25.818Z,11.40
2023-04-11T20:12:53.087Z,11.30
2023-04-11T20:15:20.806Z,11.30
2023-04-11T20:17:48.088Z,11.30
2023-04-11T20:20:15.868Z,11.20
2023-04-11T20:22:44.912Z,11.20
2023-04-11T20:25:12.186Z,11.20
2023-04-11T20:27:40.008Z,11.20
2023-04-11T20:30:10.938Z,11.20
2023-04-11T20:32:38.438Z,11.20
2023-04-11T20:35:06.089Z,11.10
2023-04-11T20:37:34.647Z,11.00
2023-04-11T20:40:02.759Z,10.90
2023-04-11T20:42:31.792Z,10.90
2023-04-11T20:45:07.264Z,10.80
2023-04-11T20:47:37.747Z,10.80
2023-04-11T20:50:06.204Z,10.80
2023-04-11T20:52:33.669Z,10.80
2023-04-11T20:55:01.579Z,10.90
2023-04-11T20:57:30.401Z,10.90
2023-04-11T20:59:57.943Z,10.80
2023-04-11T21:02:26.191Z,10.80
2023-04-11T21:04:53.588Z,10.70
2023-04-11T21:07:20.955Z,10.60
2023-04-11T21:09:48.805Z,10.50
2023-04-11T21:12:16.350Z,10.40
2023-04-11T21:14:43.280Z,10.20
2023-04-11T21:17:10.629Z,10.20
2023-04-11T21:19:38.003Z,10.10
2023-04-11T21:22:05.928Z,10.20
2023-04-11T21:24:33.753Z,10.30
2023-04-11T21:27:01.464Z,10.30
2023-04-11T21:29:29.038Z,10.40
2023-04-11T21:31:55.972Z,10.30
2023-04-11T21:34:22.931Z,10.30
2023-04-11T21:36:50.622Z,10.30
2023-04-11T21:39:17.622Z,10.30
2023-04-11T21:41:44.607Z,10.30
2023-04-11T21:44:13.461Z,10.30
2023-04-11T21:46:40.673Z,10.30
2023-04-11T21:49:07.698Z,10.40
2023-04-11T21:51:34.694Z,10.40
2023-04-11T21:54:04.407Z,10.40
2023-04-11T21:56:31.377Z,10.40
2023-04-11T21:58:58.496Z,10.40
2023-04-11T22:01:25.621Z,10.30
2023-04-11T22:03:52.794Z,10.20
2023-04-11T22:06:19.935Z,10.20
2023-04-11T22:08:50.609Z,10.10
2023-04-11T22:11:18.252Z,10.10
2023-04-11T22:13:46.575Z,10.00
2023-04-11T22:16:14.418Z,10.10
2023-04-11T22:18:47.528Z,10.10
2023-04-11T22:21:21.057Z,10.10
2023-04-11T22:23:50.110Z,10.20
2023-04-11T22:26:17.540Z,10.20
2023-04-11T22:28:45.530Z,10.30
2023-04-11T22:31:13.770Z,10.40
2023-04-11T22:33:41.446Z,10.50
2023-04-11T22:36:11.294Z,10.60
2023-04-11T22:38:38.384Z,10.70
2023-04-11T22:41:05.541Z,10.80
2023-04-11T22:43:33.390Z,10.90
2023-04-11T22:46:00.497Z,10.90
2023-04-11T22:48:30.363Z,11.00
2023-04-11T22:50:59.599Z,11.00
2023-04-11T22:53:26.585Z,11.00
2023-04-11T22:55:53.536Z,11.00
2023-04-11T22:58:20.673Z,11.00
2023-04-11T23:00:47.892Z,11.00
2023-04-11T23:03:15.660Z,11.00
2023-04-11T23:05:42.754Z,11.10
2023-04-11T23:08:10.132Z,11.10
2023-04-11T23:10:39.470Z,11.10
2023-04-11T23:13:07.154Z,11.00
2023-04-11T23:15:34.134Z,11.00
2023-04-11T23:18:01.105Z,11.00
2023-04-11T23:20:28.035Z,11.00
2023-04-11T23:22:55.509Z,10.90
2023-04-11T23:25:22.639Z,10.90
2023-04-11T23:27:49.557Z,10.90
2023-04-11T23:30:17.666Z,10.80
2023-04-11T23:32:44.790Z,10.80
2023-04-11T23:35:11.949Z,10.70
2023-04-11T23:37:38.931Z,10.70
2023-04-11T23:40:11.036Z,10.70
2023-04-11T23:42:38.898Z,10.60
2023-04-11T23:45:07.310Z,10.50
2023-04-11T23:47:34.937Z,10.40
2023-04-11T23:50:02.929Z,10.50
2023-04-11T23:52:30.528Z,10.30
2023-04-11T23:54:58.506Z,10.30
2023-04-11T23:57:25.518Z,10.20
2023-04-11T23:59:52.534Z,10.10
